Time;durP1;ratioP1;P1;durP2;ratioP2;P2;SDS_P1;SDS_P2;PMS_P1;PMS_P2;Temp;Humidity;BMP_temperature;BMP_pressure;BME280_temperature;BME280_humidity;BME280_pressure;Samples;Min_cycle;Max_cycle;Signal;HPM_P1;HPM_P2
2024/03/14 00:00:08;;;;;;;20.23;9.52;;;5.70;93.20;;;;;;5060035;28;20033;-51
2024/03/14 00:02:34;;;;;;;18.60;9.82;;;5.80;93.00;;;;;;5055420;28;20119;-49
2024/03/14 00:04:59;;;;;;;17.75;9.15;;;5.80;92.90;;;;;;5059671;28;20115;-48
2024/03/14 00:07:25;;;;;;;17.42;9.25;;;5.80;92.60;;;;;;5058026;28;20055;-48
2024/03/14 00:09:50;;;;;;;19.25;10.80;;;5.80;92.60;;;;;;5065650;28;20738;-51
2024/03/14 00:12:16;;;;;;;20.50;10.70;;;5.90;92.70;;;;;;5057966;28;20476;-47
2024/03/14 00:14:50;;;;;;;16.98;9.60;;;6.00;92.90;;;;;;5053558;28;20023;-52
2024/03/14 00:17:18;;;;;;;17.02;9.43;;;6.00;93.00;;;;;;5058053;28;20025;-48
2024/03/14 00:19:47;;;;;;;17.17;8.90;;;6.10;93.10;;;;;;5065994;28;20391;-51
2024/03/14 00:22:13;;;;;;;15.95;9.13;;;6.10;92.90;;;;;;5060101;28;20466;-48
2024/03/14 00:24:41;;;;;;;16.33;9.63;;;6.10;92.60;;;;;;5057643;28;20020;-50
2024/03/14 00:27:07;;;;;;;16.35;9.75;;;6.10;92.40;;;;;;5061485;28;20047;-49
2024/03/14 00:29:33;;;;;;;15.50;8.98;;;6.10;92.80;;;;;;5062317;28;20028;-48
2024/03/14 00:32:01;;;;;;;20.88;10.98;;;6.20;92.80;;;;;;5061593;28;20036;-53
2024/03/14 00:34:26;;;;;;;16.90;10.18;;;6.30;92.80;;;;;;5060258;28;20036;-53
2024/03/14 00:36:53;;;;;;;13.98;8.48;;;6.30;92.90;;;;;;5065698;28;20533;-49
2024/03/14 00:39:19;;;;;;;17.33;8.80;;;6.30;92.80;;;;;;5065473;28;20029;-46
2024/03/14 00:41:45;;;;;;;17.60;8.73;;;6.30;92.70;;;;;;5063089;28;20034;-49
2024/03/14 00:44:10;;;;;;;15.98;8.60;;;6.30;92.50;;;;;;5062854;28;20449;-46
2024/03/14 00:46:36;;;;;;;15.32;8.90;;;6.40;92.70;;;;;;5070051;28;20048;-51
2024/03/14 00:49:02;;;;;;;16.80;9.45;;;6.40;92.80;;;;;;5070717;28;20076;-48
2024/03/14 00:51:27;;;;;;;14.30;8.45;;;6.50;92.90;;;;;;5070169;28;20112;-51
2024/03/14 00:53:54;;;;;;;13.60;8.48;;;6.50;92.80;;;;;;5066371;28;20040;-52
2024/03/14 00:56:20;;;;;;;18.63;9.55;;;6.50;92.50;;;;;;5069887;28;20019;-52
2024/03/14 00:58:47;;;;;;;13.68;8.00;;;6.60;92.70;;;;;;5068075;28;20488;-50
2024/03/14 01:01:13;;;;;;;15.63;8.60;;;6.60;92.90;;;;;;5074806;28;20028;-51
2024/03/14 01:03:39;;;;;;;13.32;8.48;;;6.60;92.80;;;;;;5068537;28;20016;-48
2024/03/14 01:06:11;;;;;;;15.70;7.95;;;6.60;92.60;;;;;;5073732;28;20024;-52
2024/03/14 01:08:36;;;;;;;15.82;9.32;;;6.70;92.50;;;;;;5074223;28;20165;-50
2024/03/14 01:11:02;;;;;;;15.70;8.60;;;6.70;92.30;;;;;;5069818;28;20123;-50
2024/03/14 01:13:28;;;;;;;13.65;8.15;;;6.70;92.20;;;;;;5067966;28;20024;-49
2024/03/14 01:15:54;;;;;;;17.17;8.57;;;6.70;92.10;;;;;;5060672;28;20089;-48
2024/03/14 01:18:19;;;;;;;12.50;8.45;;;6.80;92.20;;;;;;5061444;28;20047;-48
2024/03/14 01:20:45;;;;;;;12.57;7.40;;;6.80;92.40;;;;;;5074617;28;20396;-50
2024/03/14 01:23:11;;;;;;;14.43;9.10;;;6.90;92.50;;;;;;5059945;28;20031;-49
2024/03/14 01:25:37;;;;;;;12.43;7.93;;;7.00;92.50;;;;;;5063232;28;20086;-49
2024/03/14 01:28:03;;;;;;;18.27;8.90;;;7.00;92.40;;;;;;5060392;28;20517;-52
2024/03/14 01:30:29;;;;;;;15.77;8.75;;;7.10;92.30;;;;;;5063916;28;20020;-49
2024/03/14 01:32:55;;;;;;;15.05;8.25;;;7.10;92.40;;;;;;5072703;28;20026;-50
2024/03/14 01:35:20;;;;;;;17.30;9.27;;;7.20;92.10;;;;;;5078419;28;20096;-46
2024/03/14 01:37:46;;;;;;;14.18;7.72;;;7.20;92.10;;;;;;5071116;28;20059;-51
2024/03/14 01:40:12;;;;;;;14.50;8.02;;;7.30;92.10;;;;;;5059055;28;20040;-50
2024/03/14 01:42:39;;;;;;;14.00;8.20;;;7.40;92.20;;;;;;5073902;28;20480;-47
2024/03/14 01:45:11;;;;;;;13.45;7.28;;;7.40;91.90;;;;;;5063202;28;20039;-49
2024/03/14 01:47:37;;;;;;;13.45;7.68;;;7.40;91.90;;;;;;5067092;28;20069;-52
2024/03/14 01:50:05;;;;;;;12.45;7.97;;;7.50;91.90;;;;;;5073211;28;20529;-48
2024/03/14 01:52:34;;;;;;;13.15;7.60;;;7.50;91.80;;;;;;5072815;28;20620;-51
2024/03/14 01:54:59;;;;;;;13.38;8.02;;;7.50;91.50;;;;;;5064901;28;20052;-51
2024/03/14 01:57:25;;;;;;;16.00;8.85;;;7.50;91.60;;;;;;5078748;28;20134;-52
2024/03/14 01:59:53;;;;;;;13.07;7.53;;;7.60;91.50;;;;;;5074846;28;20028;-49
2024/03/14 02:02:20;;;;;;;14.60;8.23;;;7.60;91.70;;;;;;5075982;28;20020;-47
2024/03/14 02:04:53;;;;;;;14.88;7.50;;;7.70;91.70;;;;;;5074811;28;20527;-48
2024/03/14 02:07:25;;;;;;;14.63;7.47;;;7.70;91.50;;;;;;5075006;28;20043;-51
2024/03/14 02:09:51;;;;;;;12.07;6.68;;;7.70;91.50;;;;;;5068540;28;20052;-49
2024/03/14 02:12:17;;;;;;;9.73;6.50;;;7.80;91.50;;;;;;5076042;28;20511;-52
2024/03/14 02:14:42;;;;;;;10.77;6.78;;;7.80;91.50;;;;;;5074883;28;20082;-47
2024/03/14 02:17:08;;;;;;;15.85;7.90;;;7.80;91.20;;;;;;5072631;28;20162;-50
2024/03/14 02:19:33;;;;;;;10.73;6.40;;;7.90;91.30;;;;;;5078659;28;20043;-49
2024/03/14 02:22:02;;;;;;;12.07;7.40;;;7.90;91.30;;;;;;5071590;28;20484;-47
2024/03/14 02:24:28;;;;;;;17.13;8.93;;;8.00;91.10;;;;;;5070771;28;20050;-48
2024/03/14 02:26:54;;;;;;;17.88;8.63;;;8.00;91.00;;;;;;5070553;28;20484;-48
2024/03/14 02:29:20;;;;;;;25.02;11.77;;;8.00;91.00;;;;;;5066376;28;20477;-48
2024/03/14 02:31:46;;;;;;;23.85;11.65;;;8.00;90.90;;;;;;5062053;28;20436;-52
2024/03/14 02:34:11;;;;;;;15.77;9.35;;;8.00;90.80;;;;;;5064188;28;20071;-51
2024/03/14 02:36:37;;;;;;;18.35;9.80;;;8.00;91.20;;;;;;5069718;28;20650;-50
2024/03/14 02:39:05;;;;;;;16.30;9.13;;;8.00;91.70;;;;;;5060051;28;20119;-52
2024/03/14 02:41:30;;;;;;;16.52;8.93;;;8.00;92.20;;;;;;5065752;28;20543;-51
2024/03/14 02:43:58;;;;;;;18.70;9.32;;;8.00;92.80;;;;;;5067860;28;20158;-48
2024/03/14 02:46:25;;;;;;;14.50;8.07;;;8.00;93.30;;;;;;5070746;28;20021;-49
2024/03/14 02:48:51;;;;;;;16.65;9.63;;;7.90;94.20;;;;;;5065917;28;20392;-46
2024/03/14 02:51:18;;;;;;;14.80;8.63;;;7.90;93.70;;;;;;5071856;28;20028;-48
2024/03/14 02:53:46;;;;;;;13.57;8.10;;;7.90;94.40;;;;;;5070437;28;20016;-48
2024/03/14 02:56:12;;;;;;;14.88;8.15;;;7.90;95.10;;;;;;5065497;28;20031;-48
2024/03/14 02:58:37;;;;;;;16.20;8.93;;;7.90;95.40;;;;;;5065818;28;20466;-49
2024/03/14 03:01:07;;;;;;;14.80;9.13;;;7.80;95.80;;;;;;5068735;28;20132;-47
2024/03/14 03:03:33;;;;;;;17.63;9.80;;;7.80;96.60;;;;;;5067467;28;20027;-48
2024/03/14 03:05:59;;;;;;;17.73;9.98;;;7.80;96.80;;;;;;5064443;28;20124;-49
2024/03/14 03:08:25;;;;;;;18.60;10.43;;;7.80;97.50;;;;;;5067767;28;20032;-47
2024/03/14 03:10:51;;;;;;;15.80;9.40;;;7.80;98.10;;;;;;5066408;28;20457;-49
2024/03/14 03:13:20;;;;;;;16.90;10.00;;;7.80;99.00;;;;;;5064252;28;20013;-50
2024/03/14 03:15:45;;;;;;;17.63;9.02;;;7.80;99.50;;;;;;5069510;28;20025;-49
2024/03/14 03:18:13;;;;;;;15.88;9.05;;;7.80;99.80;;;;;;5067659;28;20463;-50
2024/03/14 03:20:38;;;;;;;15.68;8.98;;;7.80;99.90;;;;;;5060961;28;20029;-51
2024/03/14 03:23:09;;;;;;;14.52;8.45;;;7.80;99.90;;;;;;5065979;28;20078;-46
2024/03/14 03:25:35;;;;;;;16.42;8.57;;;7.80;99.90;;;;;;5073130;28;20373;-47
2024/03/14 03:28:04;;;;;;;14.80;8.98;;;7.80;99.90;;;;;;5068265;28;20059;-50
2024/03/14 03:30:30;;;;;;;16.63;8.90;;;7.80;99.90;;;;;;5061113;28;20043;-45
2024/03/14 03:32:55;;;;;;;14.93;8.90;;;7.80;99.90;;;;;;5062908;28;20422;-47
2024/03/14 03:35:21;;;;;;;13.40;8.25;;;7.80;99.90;;;;;;5061045;28;20056;-46
2024/03/14 03:37:47;;;;;;;13.65;8.30;;;7.80;99.90;;;;;;5073342;28;20030;-46
2024/03/14 03:40:15;;;;;;;12.52;7.65;;;7.80;99.90;;;;;;5059482;28;20032;-45
2024/03/14 03:42:41;;;;;;;13.75;7.97;;;7.80;99.90;;;;;;5067271;28;20036;-46
2024/03/14 03:45:10;;;;;;;15.70;9.02;;;7.80;99.90;;;;;;5068217;28;20040;-45
2024/03/14 03:47:36;;;;;;;14.20;8.15;;;7.90;99.90;;;;;;5069215;28;20106;-45
2024/03/14 03:50:03;;;;;;;10.88;7.70;;;7.80;99.90;;;;;;5066523;28;20268;-45
2024/03/14 03:52:29;;;;;;;11.25;6.93;;;7.80;99.90;;;;;;5069024;28;20016;-47
2024/03/14 03:54:54;;;;;;;14.10;8.25;;;7.90;99.90;;;;;;5064874;28;20066;-49
2024/03/14 03:57:20;;;;;;;12.00;7.85;;;7.90;99.90;;;;;;5063844;28;20508;-45
2024/03/14 03:59:45;;;;;;;14.05;8.25;;;7.90;99.90;;;;;;5060658;28;20038;-46
2024/03/14 04:02:11;;;;;;;13.35;7.60;;;7.90;99.90;;;;;;5064765;28;20021;-51
2024/03/14 04:04:37;;;;;;;15.27;9.80;;;7.90;99.90;;;;;;5066997;28;20489;-46
2024/03/14 04:07:03;;;;;;;13.43;8.23;;;7.90;99.90;;;;;;5060417;28;20517;-50
2024/03/14 04:09:29;;;;;;;10.90;7.53;;;8.00;99.90;;;;;;5068752;28;20471;-46
2024/03/14 04:11:56;;;;;;;14.43;8.63;;;7.90;99.90;;;;;;5060269;28;20045;-48
2024/03/14 04:14:21;;;;;;;11.80;7.47;;;8.00;99.90;;;;;;5068620;28;20028;-48
2024/03/14 04:16:47;;;;;;;17.00;8.15;;;8.00;99.90;;;;;;5064609;28;20564;-47
2024/03/14 04:19:12;;;;;;;11.85;6.88;;;8.00;99.90;;;;;;5068618;28;20103;-46
2024/03/14 04:21:38;;;;;;;13.00;8.07;;;8.00;99.90;;;;;;5074465;28;20032;-45
2024/03/14 04:24:04;;;;;;;15.95;8.32;;;8.10;99.90;;;;;;5075942;28;20664;-49
2024/03/14 04:26:30;;;;;;;12.95;7.80;;;8.10;99.90;;;;;;5069947;28;20563;-49
2024/03/14 04:28:55;;;;;;;10.38;7.50;;;8.10;99.90;;;;;;5068163;28;20112;-46
2024/03/14 04:31:21;;;;;;;14.30;8.55;;;8.10;99.90;;;;;;5064302;28;20646;-45
2024/03/14 04:33:47;;;;;;;12.52;7.72;;;8.20;99.90;;;;;;5064449;28;20020;-45
2024/03/14 04:36:12;;;;;;;13.85;8.13;;;8.20;99.90;;;;;;5069810;28;20032;-51
2024/03/14 04:38:38;;;;;;;13.52;8.23;;;8.20;99.90;;;;;;5072677;28;20496;-49
2024/03/14 04:41:14;;;;;;;16.75;9.73;;;8.30;99.90;;;;;;5057990;28;20100;-48
2024/03/14 04:43:40;;;;;;;14.00;7.78;;;8.30;99.90;;;;;;5062820;28;20024;-47
2024/03/14 04:46:06;;;;;;;18.20;8.50;;;8.30;99.90;;;;;;5064368;28;20059;-47
2024/03/14 04:48:31;;;;;;;13.68;7.78;;;8.30;99.90;;;;;;5059922;28;20032;-47
2024/03/14 04:50:59;;;;;;;18.02;8.60;;;8.30;99.90;;;;;;5068011;28;20084;-51
2024/03/14 04:53:26;;;;;;;17.05;9.35;;;8.40;99.90;;;;;;5064084;28;20016;-45
2024/03/14 04:55:54;;;;;;;20.60;10.30;;;8.40;99.90;;;;;;5059781;28;20032;-47
2024/03/14 04:58:20;;;;;;;18.73;9.85;;;8.40;99.90;;;;;;5065587;28;20031;-49
2024/03/14 05:00:46;;;;;;;19.70;9.57;;;8.40;99.90;;;;;;5059934;28;20041;-49
2024/03/14 05:03:13;;;;;;;22.58;10.63;;;8.40;99.90;;;;;;5066105;28;20032;-49
2024/03/14 05:05:40;;;;;;;21.52;10.57;;;8.40;99.90;;;;;;5064050;28;20029;-47
2024/03/14 05:08:06;;;;;;;20.08;10.25;;;8.40;99.90;;;;;;5062569;28;20037;-47
2024/03/14 05:10:31;;;;;;;16.52;9.60;;;8.40;99.90;;;;;;5059231;28;20094;-48
2024/03/14 05:12:57;;;;;;;17.63;8.95;;;8.40;99.90;;;;;;5065816;28;20471;-47
2024/03/14 05:15:23;;;;;;;17.35;9.50;;;8.40;99.90;;;;;;5064844;28;20553;-50
2024/03/14 05:17:48;;;;;;;20.73;10.63;;;8.50;99.90;;;;;;5058528;28;20038;-49
2024/03/14 05:20:15;;;;;;;22.38;10.57;;;8.50;99.90;;;;;;5060900;28;20016;-50
2024/03/14 05:22:41;;;;;;;23.33;10.80;;;8.50;99.90;;;;;;5058918;28;20070;-47
2024/03/14 05:25:09;;;;;;;21.45;10.30;;;8.50;99.90;;;;;;5063953;28;20069;-47
2024/03/14 05:27:35;;;;;;;18.48;9.48;;;8.60;99.90;;;;;;5061272;28;20021;-48
2024/03/14 05:30:00;;;;;;;18.88;8.93;;;8.60;99.90;;;;;;5059038;28;20054;-48
2024/03/14 05:32:27;;;;;;;24.35;12.35;;;8.60;99.90;;;;;;5061099;28;20289;-49
2024/03/14 05:34:57;;;;;;;28.60;13.15;;;8.60;99.90;;;;;;5065321;28;20025;-47
2024/03/14 05:37:23;;;;;;;25.40;12.82;;;8.60;99.90;;;;;;5060168;28;20411;-50
2024/03/14 05:39:49;;;;;;;23.50;12.43;;;8.60;99.90;;;;;;5056953;28;20308;-45
2024/03/14 05:42:17;;;;;;;22.85;12.00;;;8.70;99.90;;;;;;5059141;28;20052;-44
2024/03/14 05:44:43;;;;;;;23.85;11.68;;;8.70;99.90;;;;;;5069004;28;20648;-45
2024/03/14 05:47:12;;;;;;;24.38;12.32;;;8.70;99.90;;;;;;5063482;28;20304;-46
2024/03/14 05:49:38;;;;;;;21.67;11.13;;;8.70;99.90;;;;;;5063227;28;20711;-47
2024/03/14 05:52:04;;;;;;;27.23;12.73;;;8.80;99.90;;;;;;5059520;28;20060;-46
2024/03/14 05:54:30;;;;;;;22.63;10.63;;;8.80;99.90;;;;;;5062785;28;20114;-45
2024/03/14 05:56:56;;;;;;;25.23;11.27;;;8.80;99.90;;;;;;5062718;28;20135;-48
2024/03/14 05:59:22;;;;;;;23.73;11.02;;;8.80;99.90;;;;;;5066759;28;20012;-48
2024/03/14 06:01:47;;;;;;;21.05;10.40;;;8.90;99.90;;;;;;5060497;28;20507;-48
2024/03/14 06:04:13;;;;;;;25.25;11.98;;;8.90;99.90;;;;;;5060512;28;20028;-48
2024/03/14 06:06:39;;;;;;;22.42;10.65;;;9.00;99.90;;;;;;5066011;28;20100;-47
2024/03/14 06:09:04;;;;;;;22.38;11.90;;;9.00;99.90;;;;;;5066346;28;20044;-46
2024/03/14 06:11:32;;;;;;;24.13;11.55;;;9.10;99.90;;;;;;5066279;28;20567;-48
2024/03/14 06:13:58;;;;;;;26.77;12.15;;;9.10;99.90;;;;;;5064647;28;20039;-48
2024/03/14 06:16:25;;;;;;;25.83;12.57;;;9.20;99.90;;;;;;5064538;28;20032;-50
2024/03/14 06:18:50;;;;;;;22.73;11.55;;;9.20;99.90;;;;;;5063811;28;20032;-48
2024/03/14 06:21:16;;;;;;;23.02;12.50;;;9.20;99.90;;;;;;5074431;28;20631;-51
2024/03/14 06:23:42;;;;;;;23.00;11.57;;;9.30;99.90;;;;;;5064643;28;20100;-50
2024/03/14 06:26:08;;;;;;;20.25;11.00;;;9.40;99.90;;;;;;5066330;28;20414;-48
2024/03/14 06:28:34;;;;;;;29.33;14.20;;;9.40;99.90;;;;;;5066559;28;20476;-50
2024/03/14 06:30:59;;;;;;;27.35;13.57;;;9.40;99.90;;;;;;5067116;28;20032;-48
2024/03/14 06:33:27;;;;;;;25.75;13.10;;;9.50;99.90;;;;;;5062874;28;20099;-48
2024/03/14 06:35:53;;;;;;;26.10;13.52;;;9.50;99.90;;;;;;5059145;28;20033;-47
2024/03/14 06:38:18;;;;;;;23.58;12.27;;;9.60;99.90;;;;;;5069286;28;20025;-45
2024/03/14 06:40:45;;;;;;;24.08;11.90;;;9.70;99.90;;;;;;5057907;28;20456;-47
2024/03/14 06:43:10;;;;;;;22.45;11.77;;;9.70;99.90;;;;;;5062776;28;20082;-47
2024/03/14 06:45:36;;;;;;;22.25;10.38;;;9.80;99.90;;;;;;5065394;28;20027;-48
2024/03/14 06:48:03;;;;;;;26.35;12.77;;;9.80;99.90;;;;;;5072011;28;20044;-45
2024/03/14 06:50:31;;;;;;;26.42;12.75;;;9.90;99.90;;;;;;5062604;28;20103;-50
2024/03/14 06:52:58;;;;;;;27.33;13.23;;;9.90;99.90;;;;;;5069354;28;20116;-48
2024/03/14 06:55:24;;;;;;;24.02;13.35;;;10.00;99.90;;;;;;5063337;28;20556;-45
2024/03/14 06:57:53;;;;;;;25.45;12.88;;;10.00;99.90;;;;;;5067438;28;20115;-47
2024/03/14 07:00:22;;;;;;;26.98;13.55;;;10.10;99.90;;;;;;5066162;28;20020;-49
2024/03/14 07:02:48;;;;;;;25.00;13.07;;;10.10;99.90;;;;;;5059757;28;20448;-45
2024/03/14 07:05:15;;;;;;;31.15;15.30;;;10.20;99.90;;;;;;5066262;28;20480;-50
2024/03/14 07:07:42;;;;;;;27.15;14.73;;;10.20;99.90;;;;;;5064868;28;20024;-46
2024/03/14 07:10:08;;;;;;;28.88;13.88;;;10.30;99.90;;;;;;5063110;28;20083;-46
2024/03/14 07:12:35;;;;;;;25.15;13.43;;;10.30;99.90;;;;;;5061122;28;20036;-45
2024/03/14 07:15:02;;;;;;;22.98;13.30;;;10.30;99.90;;;;;;5062588;28;20552;-47
2024/03/14 07:17:28;;;;;;;25.65;12.50;;;10.40;99.90;;;;;;5063083;28;20031;-47
2024/03/14 07:19:54;;;;;;;25.65;13.10;;;10.40;99.90;;;;;;5065134;28;20099;-48
2024/03/14 07:22:24;;;;;;;25.48;13.65;;;10.50;99.90;;;;;;5065821;28;20025;-46
2024/03/14 07:24:51;;;;;;;29.55;13.50;;;10.50;99.90;;;;;;5068461;28;20032;-47
2024/03/14 07:27:17;;;;;;;24.95;13.77;;;10.60;99.90;;;;;;5065856;28;20020;-47
2024/03/14 07:29:42;;;;;;;20.42;11.55;;;10.60;99.90;;;;;;5070885;28;20036;-46
2024/03/14 07:32:08;;;;;;;27.42;14.48;;;10.70;99.90;;;;;;5071550;28;20055;-46
2024/03/14 07:34:34;;;;;;;27.83;13.32;;;10.70;99.90;;;;;;5076106;28;20024;-45
2024/03/14 07:37:00;;;;;;;26.75;14.18;;;10.70;99.90;;;;;;5062954;28;20388;-46
2024/03/14 07:39:29;;;;;;;24.08;13.55;;;10.80;99.90;;;;;;5067738;28;20025;-48
2024/03/14 07:41:55;;;;;;;28.48;14.65;;;10.80;99.90;;;;;;5061118;28;20028;-46
2024/03/14 07:44:20;;;;;;;22.00;13.55;;;10.80;99.90;;;;;;5065977;28;20028;-46
2024/03/14 07:46:46;;;;;;;23.95;14.60;;;10.80;99.90;;;;;;5066796;28;20028;-47
2024/03/14 07:49:11;;;;;;;26.58;14.00;;;10.90;99.90;;;;;;5061049;28;20059;-46
2024/03/14 07:51:37;;;;;;;25.65;14.45;;;10.90;99.90;;;;;;5070485;28;20078;-46
2024/03/14 07:54:03;;;;;;;24.80;14.27;;;11.00;99.90;;;;;;5076647;28;20039;-46
2024/03/14 07:56:29;;;;;;;24.73;13.95;;;11.00;99.90;;;;;;5067758;28;20078;-45
2024/03/14 07:58:55;;;;;;;28.73;14.90;;;11.00;99.90;;;;;;5065745;28;20025;-46
2024/03/14 08:01:21;;;;;;;26.45;13.73;;;11.10;99.90;;;;;;5074906;28;20036;-47
2024/03/14 08:03:47;;;;;;;26.05;13.88;;;11.20;99.90;;;;;;5071101;28;20032;-47
2024/03/14 08:06:18;;;;;;;25.98;14.25;;;11.20;99.90;;;;;;5070674;28;20023;-47
2024/03/14 08:08:44;;;;;;;23.55;13.95;;;11.30;99.90;;;;;;5058487;28;20037;-48
2024/03/14 08:11:12;;;;;;;26.60;15.05;;;11.40;99.90;;;;;;5058064;28;20029;-46
2024/03/14 08:13:39;;;;;;;29.70;14.82;;;11.40;99.90;;;;;;5073085;28;20078;-47
2024/03/14 08:16:14;;;;;;;22.15;13.35;;;11.50;99.90;;;;;;5061095;28;20036;-50
2024/03/14 08:18:44;;;;;;;23.42;12.70;;;11.50;99.90;;;;;;5066880;28;20492;-48
2024/03/14 08:21:12;;;;;;;27.58;14.38;;;11.60;99.90;;;;;;5058326;28;20037;-43
2024/03/14 08:23:40;;;;;;;26.95;15.27;;;11.70;99.90;;;;;;5068619;28;20037;-43
2024/03/14 08:26:07;;;;;;;30.05;15.77;;;11.70;99.90;;;;;;5064202;28;20027;-45
2024/03/14 08:28:32;;;;;;;25.63;14.63;;;11.70;99.90;;;;;;5060088;28;20013;-45
2024/03/14 08:31:00;;;;;;;26.35;15.52;;;11.70;99.90;;;;;;5059843;28;20603;-50
2024/03/14 08:33:26;;;;;;;34.15;17.98;;;11.80;99.90;;;;;;5072284;28;20464;-46
2024/03/14 08:35:53;;;;;;;28.08;15.02;;;11.80;99.90;;;;;;5064937;28;20115;-47
2024/03/14 08:38:19;;;;;;;24.50;13.90;;;11.80;99.90;;;;;;5073779;28;20024;-44
2024/03/14 08:40:45;;;;;;;27.15;15.20;;;11.80;99.90;;;;;;5054316;28;20044;-44
2024/03/14 08:43:13;;;;;;;23.33;14.10;;;11.90;99.90;;;;;;5063930;28;20533;-43
2024/03/14 08:45:39;;;;;;;27.65;15.15;;;11.90;99.90;;;;;;5060059;28;20671;-47
2024/03/14 08:48:07;;;;;;;30.98;15.30;;;11.90;99.90;;;;;;5062352;28;20107;-45
2024/03/14 08:50:34;;;;;;;30.58;16.85;;;11.90;99.90;;;;;;5063648;28;20107;-44
2024/03/14 08:53:00;;;;;;;26.25;15.48;;;11.90;99.90;;;;;;5059721;28;20020;-43
2024/03/14 08:55:32;;;;;;;34.45;17.33;;;12.00;99.90;;;;;;5061317;28;20025;-44
2024/03/14 08:58:02;;;;;;;27.55;16.42;;;12.00;99.90;;;;;;5058085;28;20082;-46
2024/03/14 09:00:28;;;;;;;24.45;13.88;;;12.00;99.90;;;;;;5062231;28;20021;-44
2024/03/14 09:02:53;;;;;;;27.83;15.75;;;12.00;99.90;;;;;;5062000;28;20112;-45
2024/03/14 09:05:20;;;;;;;25.42;14.30;;;12.00;99.90;;;;;;5060724;28;20392;-45
2024/03/14 09:07:45;;;;;;;27.75;15.70;;;12.10;99.90;;;;;;5067806;28;20016;-45
2024/03/14 09:10:23;;;;;;;24.67;14.60;;;12.20;99.90;;;;;;5059525;28;20040;-44
2024/03/14 09:12:49;;;;;;;28.20;14.27;;;12.30;99.90;;;;;;5064944;28;20033;-44
2024/03/14 09:15:15;;;;;;;27.00;15.02;;;12.30;99.90;;;;;;5067792;28;20039;-46
2024/03/14 09:17:41;;;;;;;22.85;13.40;;;12.40;99.90;;;;;;5072898;28;20326;-45
2024/03/14 09:20:09;;;;;;;25.00;14.82;;;12.40;99.90;;;;;;5065984;28;20028;-46
2024/03/14 09:22:36;;;;;;;25.23;14.70;;;12.40;99.90;;;;;;5066685;28;20024;-44
2024/03/14 09:25:02;;;;;;;24.13;13.98;;;12.40;99.90;;;;;;5065464;28;20516;-43
2024/03/14 09:27:28;;;;;;;24.58;13.60;;;12.40;99.90;;;;;;5067937;28;20029;-44
2024/03/14 09:29:55;;;;;;;25.13;13.98;;;12.50;99.90;;;;;;5058884;28;20070;-47
2024/03/14 09:32:23;;;;;;;26.98;14.07;;;12.50;99.90;;;;;;5059183;28;20059;-49
2024/03/14 09:34:49;;;;;;;34.25;16.25;;;12.60;99.90;;;;;;5067296;28;20054;-43
2024/03/14 09:37:16;;;;;;;31.25;15.60;;;12.70;99.90;;;;;;5067657;28;20027;-44
2024/03/14 09:39:42;;;;;;;25.75;14.00;;;12.80;99.90;;;;;;5058763;28;20024;-43
2024/03/14 09:42:08;;;;;;;31.48;15.75;;;12.90;99.90;;;;;;5062805;28;20050;-47
2024/03/14 09:44:35;;;;;;;31.85;17.35;;;13.10;99.90;;;;;;5063838;28;21068;-44
2024/03/14 09:47:14;;;;;;;26.27;15.20;;;13.10;99.90;;;;;;5059142;28;20032;-45
2024/03/14 09:49:45;;;;;;;29.02;15.20;;;13.30;99.90;;;;;;5060818;28;20021;-45
2024/03/14 09:52:11;;;;;;;25.50;15.38;;;13.40;99.90;;;;;;5061066;28;20028;-45
2024/03/14 09:54:38;;;;;;;25.10;14.93;;;13.40;99.90;;;;;;5067068;28;20396;-45
2024/03/14 09:57:04;;;;;;;28.88;15.60;;;13.50;99.90;;;;;;5058794;28;20028;-44
2024/03/14 09:59:30;;;;;;;29.48;16.95;;;13.50;99.90;;;;;;5058947;28;20021;-44
2024/03/14 10:01:56;;;;;;;26.67;15.18;;;13.60;99.90;;;;;;5067163;28;20055;-45
2024/03/14 10:04:21;;;;;;;29.10;16.20;;;13.70;99.90;;;;;;5067170;28;20051;-44
2024/03/14 10:06:48;;;;;;;26.60;15.48;;;13.80;99.90;;;;;;5064677;28;20163;-44
2024/03/14 10:09:15;;;;;;;25.50;15.75;;;13.90;99.90;;;;;;5066831;28;20036;-44
2024/03/14 10:11:44;;;;;;;25.83;15.90;;;13.90;99.90;;;;;;5061732;28;20400;-44
2024/03/14 10:14:22;;;;;;;27.63;15.50;;;14.10;99.90;;;;;;5066234;28;20436;-45
2024/03/14 10:16:50;;;;;;;22.33;13.55;;;14.20;99.90;;;;;;5063069;28;20025;-45
2024/03/14 10:19:16;;;;;;;31.05;17.38;;;14.40;99.90;;;;;;5063317;28;20715;-44
2024/03/14 10:21:42;;;;;;;23.92;14.80;;;14.40;99.60;;;;;;5068919;28;20036;-45
2024/03/14 10:24:09;;;;;;;25.67;15.05;;;14.60;99.50;;;;;;5068407;28;20024;-44
2024/03/14 10:26:37;;;;;;;27.55;16.00;;;14.60;98.00;;;;;;5070795;28;20427;-45
2024/03/14 10:29:03;;;;;;;26.92;16.02;;;14.80;97.20;;;;;;5076327;28;20028;-44
2024/03/14 10:31:29;;;;;;;25.42;15.35;;;14.80;96.90;;;;;;5071796;28;20024;-44
2024/03/14 10:33:54;;;;;;;28.02;16.77;;;14.90;95.60;;;;;;5072237;28;20044;-44
2024/03/14 10:36:21;;;;;;;26.15;15.93;;;15.00;93.90;;;;;;5069575;28;20040;-43
2024/03/14 10:38:50;;;;;;;30.73;16.55;;;15.00;93.40;;;;;;5065655;28;20050;-45
2024/03/14 10:41:17;;;;;;;22.58;14.15;;;15.10;92.50;;;;;;5067842;28;20484;-46
2024/03/14 10:43:54;;;;;;;23.40;14.30;;;15.30;93.00;;;;;;5070693;28;20032;-46
2024/03/14 10:46:20;;;;;;;19.27;12.52;;;15.40;91.90;;;;;;5062087;28;20097;-44
2024/03/14 10:48:47;;;;;;;19.48;12.15;;;15.60;92.20;;;;;;5061881;28;20488;-45
2024/03/14 10:51:13;;;;;;;24.77;16.40;;;15.80;91.70;;;;;;5065996;28;20396;-45
2024/03/14 10:53:40;;;;;;;24.08;15.32;;;15.80;88.40;;;;;;5066024;28;20492;-44
2024/03/14 10:56:15;;;;;;;21.55;13.52;;;15.70;87.40;;;;;;5066173;28;20029;-44
2024/03/14 10:58:43;;;;;;;20.60;13.43;;;15.70;88.00;;;;;;5068563;28;20106;-44
2024/03/14 11:01:10;;;;;;;21.20;12.07;;;15.90;88.00;;;;;;5065815;28;20028;-45
2024/03/14 11:03:38;;;;;;;17.48;10.63;;;16.10;88.10;;;;;;5066096;28;20104;-44
2024/03/14 11:06:11;;;;;;;18.55;11.73;;;16.20;87.30;;;;;;5069995;28;20028;-43
2024/03/14 11:08:39;;;;;;;14.80;10.20;;;16.40;85.40;;;;;;5062798;28;20060;-48
2024/03/14 11:11:07;;;;;;;15.88;10.13;;;16.40;84.60;;;;;;5066871;28;20055;-43
2024/03/14 11:13:36;;;;;;;18.75;10.75;;;16.50;84.50;;;;;;5062080;28;20036;-46
2024/03/14 11:16:05;;;;;;;17.90;10.27;;;16.50;83.00;;;;;;5066211;28;20029;-44
2024/03/14 11:18:39;;;;;;;18.42;11.07;;;16.60;83.30;;;;;;5069574;28;20028;-45
2024/03/14 11:21:09;;;;;;;16.65;10.52;;;16.70;81.20;;;;;;5068186;28;20035;-45
2024/03/14 11:23:36;;;;;;;16.27;10.15;;;16.80;80.90;;;;;;5064448;28;20090;-45
2024/03/14 11:26:12;;;;;;;14.30;10.15;;;16.80;80.20;;;;;;5066401;28;20472;-44
2024/03/14 11:28:38;;;;;;;15.13;10.57;;;16.90;79.80;;;;;;5060482;28;20094;-44
2024/03/14 11:31:03;;;;;;;12.85;9.00;;;17.00;79.00;;;;;;5061537;28;20071;-46
2024/03/14 11:33:30;;;;;;;13.35;9.50;;;17.10;76.80;;;;;;5061578;28;20036;-44
2024/03/14 11:35:59;;;;;;;11.20;8.35;;;17.20;76.80;;;;;;5062105;28;20020;-46
2024/03/14 11:38:26;;;;;;;11.23;7.18;;;17.20;74.40;;;;;;5060291;28;20438;-45
2024/03/14 11:40:53;;;;;;;10.23;6.90;;;17.30;74.20;;;;;;5064048;28;20534;-46
2024/03/14 11:43:22;;;;;;;8.85;6.28;;;17.40;73.90;;;;;;5061931;28;20028;-44
2024/03/14 11:46:00;;;;;;;8.05;5.80;;;17.40;72.30;;;;;;5061004;28;20033;-44
2024/03/14 11:48:31;;;;;;;12.02;7.28;;;17.40;71.00;;;;;;5065277;28;20024;-44
2024/03/14 11:50:59;;;;;;;8.30;6.38;;;17.40;66.90;;;;;;5066068;28;20408;-46
2024/03/14 11:53:27;;;;;;;7.50;5.90;;;17.20;67.40;;;;;;5061319;28;20112;-45
2024/03/14 11:55:52;;;;;;;7.15;4.78;;;17.30;69.40;;;;;;5059627;28;20500;-45
2024/03/14 11:58:20;;;;;;;7.60;4.90;;;17.40;69.20;;;;;;5062587;28;20048;-47
2024/03/14 12:00:52;;;;;;;6.60;4.35;;;17.30;67.70;;;;;;5062515;28;20391;-44
2024/03/14 12:03:18;;;;;;;9.27;5.38;;;17.20;66.50;;;;;;5062959;28;20031;-45
2024/03/14 12:06:06;;;;;;;6.93;4.82;;;17.20;65.90;;;;;;5064390;28;20055;-44
2024/03/14 12:08:34;;;;;;;6.35;4.15;;;17.20;64.50;;;;;;5057818;28;20086;-44
2024/03/14 12:11:02;;;;;;;7.28;5.05;;;17.10;65.60;;;;;;5064430;28;20051;-45
2024/03/14 12:13:29;;;;;;;6.80;4.93;;;17.10;64.30;;;;;;5058305;28;20058;-44
2024/03/14 12:16:01;;;;;;;7.22;5.18;;;17.10;64.50;;;;;;5064570;28;20028;-46
2024/03/14 12:18:27;;;;;;;5.32;3.90;;;17.10;63.50;;;;;;5063489;28;20103;-48
2024/03/14 12:20:53;;;;;;;6.25;3.83;;;17.10;63.60;;;;;;5069947;28;20107;-45
2024/03/14 12:23:22;;;;;;;5.70;3.83;;;17.10;63.50;;;;;;5070078;28;20082;-44
2024/03/14 12:25:50;;;;;;;6.50;4.18;;;17.10;63.30;;;;;;5060130;28;20066;-44
2024/03/14 12:28:16;;;;;;;4.68;3.47;;;17.00;62.80;;;;;;5064012;28;20027;-46
2024/03/14 12:30:43;;;;;;;7.85;4.68;;;16.90;62.50;;;;;;5064235;28;20031;-44
2024/03/14 12:33:11;;;;;;;7.82;4.95;;;16.80;63.30;;;;;;5064346;28;20352;-48
2024/03/14 12:35:38;;;;;;;11.27;4.85;;;16.70;62.90;;;;;;5059913;28;20051;-46